Aérodrome :
LOGIN :

S'inscrire | Disclaimer

   EN    FR    IT 

 










Légende :    VFR   VFR Marginal   IFR   IFR Intensif   IFR Très Intensif
Visi : 
Plafond : 
>= 8 km
>= 3000ft
5 à 8 km
1000 à 3000 ft
1500m à 5 km
500 à 1000 ft
800 à 1500m
200 à 500 ft
< 800m
< 200 ft
Symboles :   Orages  Brouillard  Fortes neiges  Fortes précipitations  Vent > 20 kt
SIGMETs :   Divers  Orages  Givrage  Turbulence  Onde Orograph.  Cendres Volcan.







- Altitude de l'aérodrome : 1017 ft
- Voir les cartes d'approche


LFSL - Brive Souillac

DERNIER METAR :
  • 221600Z AUTO VRB03KT 3000 BR OVC002 00/00 Q1006 BECMG 0800 FG VV///

METARs EXPIRÉS :
  • 221530Z AUTO 16003KT 130V200 2800 BR OVC002 00/00 Q1006 BECMG 0800 FG VV///
  • 221500Z AUTO 15004KT 130V190 3200 BR OVC002 00/00 Q1006 TEMPO 1200 -SN
  • 221430Z AUTO 14004KT 110V190 1800 -SN BR OVC003 00/00 Q1007 TEMPO 1200 -SN
  • 221400Z AUTO 15005KT 120V180 1300 1000 R29/1400U -SN BR BKN003/// BKN010/// OVC015/// ///CB 00/M00 Q1007 TEMPO 2000 -SN OVC003
  • 221330Z AUTO 14006KT 1600 1300 R29/1700U -SN BR BKN003/// OVC011/// ///TCU 00/M00 Q1007 TEMPO OVC003

TAF AMD TAF LFSL
Valide du 22 à 15h jusqu'au 23 à 00h UTC


221539Z 2215/2224 VRB02KT 9999 BKN008
TEMPO 2215/2217 1200 -SN OVC002
BECMG 2217/2219 0800 FG VV///
PROB30
TEMPO 2219/2224 0300
BECMG 2222/2224 14005KT
Pas de NOTAMs connus pour ce terrain.



MET'MAP, la Météo Aéronautique d'un coup d'oeil ! - Copyright ORBIFLY Décembre 2007 - Disclaimer

ORBIFLY MET'MAP TEAM :

Programmation & Développement : Alexandra Zaïnal
Conception & Développement : Baudouin d'Aumeries
Co-Programmation & Développement : Marc-Olivier Méhu
Soutien technique & logistique : Manuel Goepfert

Contact : metmap@orbifly.com




SOURCES & CREDITS :

   NOAA